Flinterbrise — PHCA — position and weather

sailwx.info

Track history (hours):
 
Tides and Currents Weather Stations Pressure Air Temp Water Temp Dewpoint Dewpoint Depression Visibility Wind Speed Wind Dir Waves Ship Positions

Flinterbrise

Last reported at 2014-Jul-31 04:15 UTC. Time now 2014-Jul-31 07:32 UTC.
Position N 54°41' E 020°12'.

Length 83 m; draft 3.5 m.

Type: Ship. MMSI: 246044000.

Date/timePositionNaut miles runAvg speedWind from/ knotsBaromVisibWave heightAir tempDewpointWater temp
2014-Jul-31 04:15N 54°41' E 020°12'0 0.0
2014-Jul-31 03:30N 54°41' E 020°12'0 0.0
2014-Jul-31 02:32N 54°41' E 020°12'0 0.0
2014-Jul-31 01:26N 54°41' E 020°12'11 1.0
2014-Jul-30 14:06N 54°38' E 019°54'3 6.0
2014-Jul-30 13:33N 54°40' E 019°49'6 5.9
2014-Jul-30 12:33N 54°43' E 019°41'5 5.3
2014-Jul-30 11:33N 54°47' E 019°37'6 6.0
2014-Jul-30 10:33N 54°53' E 019°39'9 8.3
2014-Jul-30 09:32N 55°01' E 019°43'1010.6
2014-Jul-30 08:33N 55°11' E 019°48'1110.6
2014-Jul-30 07:33N 55°22' E 019°54'1010.5
2014-Jul-30 06:33N 55°32' E 019°59'1211.9
2014-Jul-30 05:33N 55°43' E 020°05'10 9.8
2014-Jul-30 04:33N 55°53' E 020°09'9 9.0
2014-Jul-30 03:32N 56°02' E 020°13'37 8.9
2014-Jul-29 23:24N 56°37' E 020°31'8 9.0
2014-Jul-29 22:30N 56°45' E 020°36'21 9.2
2014-Jul-29 20:14N 57°04' E 020°49'6 9.2
2014-Jul-29 19:32N 57°10' E 020°55'  
2014-Jul-26 22:24N 56°07' E 016°56'8 9.3
2014-Jul-26 21:33N 56°02' E 016°44'9 9.0
2014-Jul-26 20:33N 55°58' E 016°30'9 9.0
2014-Jul-26 19:31N 55°53' E 016°15'8 8.7
2014-Jul-26 18:33N 55°49' E 016°02'9 8.9
2014-Jul-26 17:32N 55°45' E 015°48'9 8.9
2014-Jul-26 16:33N 55°41' E 015°35'9 9.0
2014-Jul-26 15:33N 55°36' E 015°21'9 9.1
2014-Jul-26 14:32N 55°32' E 015°06'9 9.3
2014-Jul-26 13:32N 55°27' E 014°52'9 9.3
2014-Jul-26 12:33N 55°23' E 014°38'9 8.9
2014-Jul-26 11:32N 55°15' E 014°29'10 9.4
2014-Jul-26 10:30N 55°08' E 014°18'18 8.9
2014-Jul-26 08:31N 54°58' E 013°53'11 9.0
2014-Jul-26 07:21N 54°55' E 013°35'7 8.9
2014-Jul-26 06:30N 54°52' E 013°23'18 8.9
2014-Jul-26 04:32N 54°46' E 012°55'9 9.0
2014-Jul-26 03:33N 54°43' E 012°41'9 8.8
2014-Jul-26 02:33N 54°37' E 012°29'10 8.3
2014-Jul-26 01:22N 54°30' E 012°16'7 8.1
2014-Jul-26 00:33N 54°25' E 012°10'9 8.6
2014-Jul-25 23:33N 54°24' E 011°56'9 8.7
2014-Jul-25 22:33N 54°26' E 011°41'9 8.5
2014-Jul-25 21:33N 54°30' E 011°28'8 8.1
2014-Jul-25 20:33N 54°33' E 011°15'11 8.1
2014-Jul-25 19:13N 54°34' E 010°57'65 6.7
2014-Jul-25 09:28N 54°03' E 009°18'8 8.5
2014-Jul-25 08:32N 53°56' E 009°12'3 3.1
2014-Jul-25 07:33N 53°54' E 009°09'5 4.9
2014-Jul-25 06:33N 53°51' E 009°01'8 7.9
2014-Jul-25 05:33N 53°50' E 008°48'7 7.1
2014-Jul-25 04:33N 53°55' E 008°40'6 6.4
2014-Jul-25 03:33N 53°58' E 008°30'6 6.4
2014-Jul-25 02:33N 53°59' E 008°20'9 8.5
2014-Jul-25 01:33N 53°58' E 008°05'8 7.9
2014-Jul-25 00:33N 53°57' E 007°52'37 9.0
2014-Jul-24 20:24N 53°48' E 006°50'9 9.9
2014-Jul-24 19:33N 53°46' E 006°36'1010.1
2014-Jul-24 18:33N 53°44' E 006°20'1010.0
2014-Jul-24 17:33N 53°41' E 006°04'10 9.7
2014-Jul-24 16:33N 53°38' E 005°48'10 9.5
2014-Jul-24 15:33N 53°34' E 005°33'9 9.4
2014-Jul-24 14:33N 53°31' E 005°18'9 8.8
2014-Jul-24 13:33N 53°28' E 005°04'8 8.2
2014-Jul-24 12:33N 53°25' E 004°51'8 7.4
2014-Jul-24 11:27N 53°20' E 004°41'24 7.7
2014-Jul-24 08:21N 52°59' E 004°22'6 7.4
2014-Jul-24 07:33N 52°54' E 004°19'2 1.7
2014-Jul-24 06:33N 52°52' E 004°18'9 8.7
2014-Jul-24 05:33N 52°45' E 004°09'9 9.3
2014-Jul-24 04:33N 52°39' E 003°58'11 9.8
2014-Jul-24 03:23N 52°31' E 003°45'8 9.7
2014-Jul-24 02:31N 52°23' E 003°39'9 9.9
2014-Jul-24 01:33N 52°14' E 003°32'1010.1
2014-Jul-24 00:31N 52°05' E 003°26'1010.1
2014-Jul-23 23:33N 51°55' E 003°23'1110.0
2014-Jul-23 22:29N 51°45' E 003°16'8 8.7
2014-Jul-23 21:33N 51°38' E 003°21'7979.1
2014-Jul-23 20:33N 51°30' E 001°14'9191.6
2014-Jul-23 19:34N 51°26' E 003°40'9 9.2
2014-Jul-23 18:33N 51°21' E 003°52'7 6.9
2014-Jul-23 17:33N 51°23' E 004°02'9 9.4
2014-Jul-23 16:33N 51°20' E 004°16'8 8.4
2014-Jul-23 15:33N 51°13' E 004°23'3 2.8
2014-Jul-23 14:31N 51°11' E 004°20'0 0.0
2014-Jul-23 13:31N 51°11' E 004°20'0 0.0
2014-Jul-23 12:33N 51°11' E 004°20'0 0.0
2014-Jul-23 11:33N 51°11' E 004°20'0 0.0
2014-Jul-23 10:32N 51°11' E 004°20'0 0.0
2014-Jul-23 09:32N 51°11' E 004°20'0 0.0
2014-Jul-23 08:31N 51°11' E 004°20'0 0.0
2014-Jul-23 07:31N 51°11' E 004°20'0 0.0
2014-Jul-23 06:31N 51°11' E 004°20'0 0.0
2014-Jul-23 05:33N 51°11' E 004°20'0 0.0
2014-Jul-23 04:33N 51°11' E 004°20'0 0.0
2014-Jul-23 03:32N 51°11' E 004°20'0 0.0
2014-Jul-23 02:32N 51°11' E 004°20'0 0.0
2014-Jul-23 01:31N 51°11' E 004°20'0 0.0
2014-Jul-23 00:31N 51°11' E 004°20'0 0.0
2014-Jul-22 23:30N 51°11' E 004°20'0 0.0
2014-Jul-22 22:33N 51°11' E 004°20'0 0.0
2014-Jul-22 21:33N 51°11' E 004°20'0 0.0
2014-Jul-22 20:32N 51°11' E 004°20'0 0.0
2014-Jul-22 19:32N 51°11' E 004°20'0 0.0
2014-Jul-22 18:31N 51°11' E 004°20'0 0.0
2014-Jul-22 17:31N 51°11' E 004°20'0 0.0
2014-Jul-22 16:33N 51°11' E 004°20'0 0.0
2014-Jul-22 15:33N 51°11' E 004°20'0 0.0
2014-Jul-22 14:33N 51°11' E 004°20'0 0.0
2014-Jul-22 13:32N 51°11' E 004°20'0 0.0
2014-Jul-22 12:29N 51°11' E 004°20'0 0.0
2014-Jul-22 11:28N 51°11' E 004°20'0 0.0
2014-Jul-22 10:31N 51°11' E 004°20'0 0.0
2014-Jul-22 09:33N 51°11' E 004°20'0 0.0
2014-Jul-22 08:33N 51°11' E 004°20'0 0.0
2014-Jul-22 07:33N 51°11' E 004°20'0 0.0
2014-Jul-22 06:33N 51°11' E 004°20'4 3.7
2014-Jul-22 05:33N 51°15' E 004°20'8 8.2
2014-Jul-22 04:33N 51°22' E 004°13'7 7.5
2014-Jul-22 03:33N 51°24' E 004°02'7 6.6
2014-Jul-22 02:33N 51°21' E 003°53'8 8.1
2014-Jul-22 01:33N 51°25' E 003°42'8 7.7
2014-Jul-22 00:33N 51°29' E 003°30'1110.1
2014-Jul-21 23:29N 51°38' E 003°21'1010.1
2014-Jul-21 22:33N 51°46' E 003°14'29 8.2
2014-Jul-21 19:03N 52°02' E 003°52'5 9.9
2014-Jul-21 18:33N 52°00' E 004°00'9 9.0
2014-Jul-21 17:34N 51°56' E 004°13'7 6.7
2014-Jul-21 16:30N 51°54' E 004°24'0 0.0
2014-Jul-21 15:24N 51°54' E 004°24'0 0.0
2014-Jul-21 14:26N 51°54' E 004°24'0 0.0
2014-Jul-21 13:29N 51°54' E 004°24'0 0.0
2014-Jul-21 11:31N 51°54' E 004°24'0 0.0
2014-Jul-21 10:03N 51°54' E 004°24'0 0.0
2014-Jul-21 09:21N 51°54' E 004°24'0 0.0
2014-Jul-21 08:29N 51°54' E 004°24'0 0.0
2014-Jul-21 07:19N 51°54' E 004°24'0 0.0
2014-Jul-21 06:24N 51°54' E 004°24'0 0.0
2014-Jul-21 05:24N 51°54' E 004°24'0 0.0
2014-Jul-21 04:27N 51°54' E 004°24'  
Track history (hours):
 
Tides and Currents Weather Stations Pressure Air Temp Water Temp Dewpoint Dewpoint Depression Visibility Wind Speed Wind Dir Waves Ship Positions

Flinterbrise

Last reported at 2014-Jul-31 04:15 UTC. Time now 2014-Jul-31 07:32 UTC.
Position N 54°41' E 020°12'.

Length 83 m; draft 3.5 m.

Type: Ship. MMSI: 246044000.

Date/timePositionNaut miles runAvg speedWind from/ knotsBaromVisibWave heightAir tempDewpointWater temp
2014-Jul-31 04:15N 54°41' E 020°12'0 0.0
2014-Jul-31 03:30N 54°41' E 020°12'0 0.0
2014-Jul-31 02:32N 54°41' E 020°12'0 0.0
2014-Jul-31 01:26N 54°41' E 020°12'11 1.0
2014-Jul-30 14:06N 54°38' E 019°54'3 6.0
2014-Jul-30 13:33N 54°40' E 019°49'6 5.9
2014-Jul-30 12:33N 54°43' E 019°41'5 5.3
2014-Jul-30 11:33N 54°47' E 019°37'6 6.0
2014-Jul-30 10:33N 54°53' E 019°39'9 8.3
2014-Jul-30 09:32N 55°01' E 019°43'1010.6
2014-Jul-30 08:33N 55°11' E 019°48'1110.6
2014-Jul-30 07:33N 55°22' E 019°54'1010.5
2014-Jul-30 06:33N 55°32' E 019°59'1211.9
2014-Jul-30 05:33N 55°43' E 020°05'10 9.8
2014-Jul-30 04:33N 55°53' E 020°09'9 9.0
2014-Jul-30 03:32N 56°02' E 020°13'37 8.9
2014-Jul-29 23:24N 56°37' E 020°31'8 9.0
2014-Jul-29 22:30N 56°45' E 020°36'21 9.2
2014-Jul-29 20:14N 57°04' E 020°49'6 9.2
2014-Jul-29 19:32N 57°10' E 020°55'  
2014-Jul-26 22:24N 56°07' E 016°56'8 9.3
2014-Jul-26 21:33N 56°02' E 016°44'9 9.0
2014-Jul-26 20:33N 55°58' E 016°30'9 9.0
2014-Jul-26 19:31N 55°53' E 016°15'8 8.7
2014-Jul-26 18:33N 55°49' E 016°02'9 8.9
2014-Jul-26 17:32N 55°45' E 015°48'9 8.9
2014-Jul-26 16:33N 55°41' E 015°35'9 9.0
2014-Jul-26 15:33N 55°36' E 015°21'9 9.1
2014-Jul-26 14:32N 55°32' E 015°06'9 9.3
2014-Jul-26 13:32N 55°27' E 014°52'9 9.3
2014-Jul-26 12:33N 55°23' E 014°38'9 8.9
2014-Jul-26 11:32N 55°15' E 014°29'10 9.4
2014-Jul-26 10:30N 55°08' E 014°18'18 8.9
2014-Jul-26 08:31N 54°58' E 013°53'11 9.0
2014-Jul-26 07:21N 54°55' E 013°35'7 8.9
2014-Jul-26 06:30N 54°52' E 013°23'18 8.9
2014-Jul-26 04:32N 54°46' E 012°55'9 9.0
2014-Jul-26 03:33N 54°43' E 012°41'9 8.8
2014-Jul-26 02:33N 54°37' E 012°29'10 8.3
2014-Jul-26 01:22N 54°30' E 012°16'7 8.1
2014-Jul-26 00:33N 54°25' E 012°10'9 8.6
2014-Jul-25 23:33N 54°24' E 011°56'9 8.7
2014-Jul-25 22:33N 54°26' E 011°41'9 8.5
2014-Jul-25 21:33N 54°30' E 011°28'8 8.1
2014-Jul-25 20:33N 54°33' E 011°15'11 8.1
2014-Jul-25 19:13N 54°34' E 010°57'65 6.7
2014-Jul-25 09:28N 54°03' E 009°18'8 8.5
2014-Jul-25 08:32N 53°56' E 009°12'3 3.1
2014-Jul-25 07:33N 53°54' E 009°09'5 4.9
2014-Jul-25 06:33N 53°51' E 009°01'8 7.9
2014-Jul-25 05:33N 53°50' E 008°48'7 7.1
2014-Jul-25 04:33N 53°55' E 008°40'6 6.4
2014-Jul-25 03:33N 53°58' E 008°30'6 6.4
2014-Jul-25 02:33N 53°59' E 008°20'9 8.5
2014-Jul-25 01:33N 53°58' E 008°05'8 7.9
2014-Jul-25 00:33N 53°57' E 007°52'37 9.0
2014-Jul-24 20:24N 53°48' E 006°50'9 9.9
2014-Jul-24 19:33N 53°46' E 006°36'1010.1
2014-Jul-24 18:33N 53°44' E 006°20'1010.0
2014-Jul-24 17:33N 53°41' E 006°04'10 9.7
2014-Jul-24 16:33N 53°38' E 005°48'10 9.5
2014-Jul-24 15:33N 53°34' E 005°33'9 9.4
2014-Jul-24 14:33N 53°31' E 005°18'9 8.8
2014-Jul-24 13:33N 53°28' E 005°04'8 8.2
2014-Jul-24 12:33N 53°25' E 004°51'8 7.4
2014-Jul-24 11:27N 53°20' E 004°41'24 7.7
2014-Jul-24 08:21N 52°59' E 004°22'6 7.4
2014-Jul-24 07:33N 52°54' E 004°19'2 1.7
2014-Jul-24 06:33N 52°52' E 004°18'9 8.7
2014-Jul-24 05:33N 52°45' E 004°09'9 9.3
2014-Jul-24 04:33N 52°39' E 003°58'11 9.8
2014-Jul-24 03:23N 52°31' E 003°45'8 9.7
2014-Jul-24 02:31N 52°23' E 003°39'9 9.9
2014-Jul-24 01:33N 52°14' E 003°32'1010.1
2014-Jul-24 00:31N 52°05' E 003°26'1010.1
2014-Jul-23 23:33N 51°55' E 003°23'1110.0
2014-Jul-23 22:29N 51°45' E 003°16'8 8.7
2014-Jul-23 21:33N 51°38' E 003°21'7979.1
2014-Jul-23 20:33N 51°30' E 001°14'9191.6
2014-Jul-23 19:34N 51°26' E 003°40'9 9.2
2014-Jul-23 18:33N 51°21' E 003°52'7 6.9
2014-Jul-23 17:33N 51°23' E 004°02'9 9.4
2014-Jul-23 16:33N 51°20' E 004°16'8 8.4
2014-Jul-23 15:33N 51°13' E 004°23'3 2.8
2014-Jul-23 14:31N 51°11' E 004°20'0 0.0
2014-Jul-23 13:31N 51°11' E 004°20'0 0.0
2014-Jul-23 12:33N 51°11' E 004°20'0 0.0
2014-Jul-23 11:33N 51°11' E 004°20'0 0.0
2014-Jul-23 10:32N 51°11' E 004°20'0 0.0
2014-Jul-23 09:32N 51°11' E 004°20'0 0.0
2014-Jul-23 08:31N 51°11' E 004°20'0 0.0
2014-Jul-23 07:31N 51°11' E 004°20'0 0.0
2014-Jul-23 06:31N 51°11' E 004°20'0 0.0
2014-Jul-23 05:33N 51°11' E 004°20'0 0.0
2014-Jul-23 04:33N 51°11' E 004°20'0 0.0
2014-Jul-23 03:32N 51°11' E 004°20'0 0.0
2014-Jul-23 02:32N 51°11' E 004°20'0 0.0
2014-Jul-23 01:31N 51°11' E 004°20'0 0.0
2014-Jul-23 00:31N 51°11' E 004°20'0 0.0
2014-Jul-22 23:30N 51°11' E 004°20'0 0.0
2014-Jul-22 22:33N 51°11' E 004°20'0 0.0
2014-Jul-22 21:33N 51°11' E 004°20'0 0.0
2014-Jul-22 20:32N 51°11' E 004°20'0 0.0
2014-Jul-22 19:32N 51°11' E 004°20'0 0.0
2014-Jul-22 18:31N 51°11' E 004°20'0 0.0
2014-Jul-22 17:31N 51°11' E 004°20'0 0.0
2014-Jul-22 16:33N 51°11' E 004°20'0 0.0
2014-Jul-22 15:33N 51°11' E 004°20'0 0.0
2014-Jul-22 14:33N 51°11' E 004°20'0 0.0
2014-Jul-22 13:32N 51°11' E 004°20'0 0.0
2014-Jul-22 12:29N 51°11' E 004°20'0 0.0
2014-Jul-22 11:28N 51°11' E 004°20'0 0.0
2014-Jul-22 10:31N 51°11' E 004°20'0 0.0
2014-Jul-22 09:33N 51°11' E 004°20'0 0.0
2014-Jul-22 08:33N 51°11' E 004°20'0 0.0
2014-Jul-22 07:33N 51°11' E 004°20'0 0.0
2014-Jul-22 06:33N 51°11' E 004°20'4 3.7
2014-Jul-22 05:33N 51°15' E 004°20'8 8.2
2014-Jul-22 04:33N 51°22' E 004°13'7 7.5
2014-Jul-22 03:33N 51°24' E 004°02'7 6.6
2014-Jul-22 02:33N 51°21' E 003°53'8 8.1
2014-Jul-22 01:33N 51°25' E 003°42'8 7.7
2014-Jul-22 00:33N 51°29' E 003°30'1110.1
2014-Jul-21 23:29N 51°38' E 003°21'1010.1
2014-Jul-21 22:33N 51°46' E 003°14'29 8.2
2014-Jul-21 19:03N 52°02' E 003°52'5 9.9
2014-Jul-21 18:33N 52°00' E 004°00'9 9.0
2014-Jul-21 17:34N 51°56' E 004°13'7 6.7
2014-Jul-21 16:30N 51°54' E 004°24'0 0.0
2014-Jul-21 15:24N 51°54' E 004°24'0 0.0
2014-Jul-21 14:26N 51°54' E 004°24'0 0.0
2014-Jul-21 13:29N 51°54' E 004°24'0 0.0
2014-Jul-21 11:31N 51°54' E 004°24'0 0.0
2014-Jul-21 10:03N 51°54' E 004°24'0 0.0
2014-Jul-21 09:21N 51°54' E 004°24'0 0.0
2014-Jul-21 08:29N 51°54' E 004°24'0 0.0
2014-Jul-21 07:19N 51°54' E 004°24'0 0.0
2014-Jul-21 06:24N 51°54' E 004°24'0 0.0
2014-Jul-21 05:24N 51°54' E 004°24'0 0.0
2014-Jul-21 04:27N 51°54' E 004°24'  

Dump ship's entire track history